Portada
METAR-TAF:

METAR-TAF

Aeroports :

Londres Biggin Hill, Anglaterra

latitud: 51-19N, longitud: 000-02E, altitud: 183 m

Observació

L'informe es va fer fa 28 minuts, a les 11:50 UTC
Vent 7 kt del Est/Sud-Est, variant entre Est i Sud/Sud-Est
Temperatura 20°C
Humitat 53%
Pressió 1025 hPa
Visibilitat: 9000 m

METAR: EGKB 091150Z 12007KT 080V160 9000 NSC 20/10 Q1025

Hora: 13:18 (12:18 UTC)

Pronòstic

L'informe es va fer fa 1 hora i 20 minuts, a les 10:58 UTC
Pronòstic vàlid del 09 a les 12 UTC al 09 a les 21 UTC
Vent 7 kt del Est
Visibilitat 10 km o més
Escasses núvols a una alçada de 4500 ft
Probabilitat 40%
l' 09 a les 12 UTC al 09 a les 18 UTC
Visibilitat: 7000 m
Evolucionant progressivament
l' 09 a les 18 UTC al 09 a les 21 UTC
Visibilitat: 6000 m

TAF: EGKB 091058Z 0912/0921 08007KT 9999 FEW045 PROB40 0912/0918 7000 BECMG 0918/0921 6000

Observacions i pronòstics meteorològics de més de 4000 aeroports (METAR i TAF).

Les estacions disponibles són els punts grocs i vermells al mapa.

Posi el ratolí al punt desitjat per veure el nom de l'estació.

Feu clic per veure les observacions i els pronòstics meteorològics.

Per canviar el mapa: feu clic els botons verds amb una creu de color negre per apropar; al botó verd amb un guió per allunyar la imatge; o en les fletxes verdes per a mapes adjacents.


METAR-TAF: